Time;durP1;ratioP1;P1;durP2;ratioP2;P2;SDS_P1;SDS_P2;PMS_P1;PMS_P2;Temp;Humidity;BMP_temperature;BMP_pressure;BME280_temperature;BME280_humidity;BME280_pressure;Samples;Min_cycle;Max_cycle;Signal;HPM_P1;HPM_P2
2023/08/25 00:01:34;;;;;;;;;;;14.60;99.90;;;;;;5097184;28;20003;-67
2023/08/25 00:04:00;;;;;;;;;;;14.70;99.90;;;;;;5102016;28;19919;-67
2023/08/25 00:06:27;;;;;;;;;;;14.80;99.90;;;;;;5114796;28;20389;-65
2023/08/25 00:08:53;;;;;;;;;;;15.00;99.90;;;;;;5115276;28;19916;-68
2023/08/25 00:11:20;;;;;;;;;;;15.00;99.90;;;;;;5115997;28;20040;-66
2023/08/25 00:13:47;;;;;;;;;;;15.20;99.90;;;;;;5114081;28;20360;-67
2023/08/25 00:16:13;;;;;;;;;;;15.30;99.90;;;;;;5115743;28;19918;-69
2023/08/25 00:18:40;;;;;;;;;;;15.40;99.90;;;;;;5101201;28;20229;-68
2023/08/25 00:21:07;;;;;;;;;;;15.50;99.90;;;;;;5100080;28;19918;-69
2023/08/25 00:23:34;;;;;;;;;;;15.60;99.90;;;;;;5115643;28;19907;-68
2023/08/25 00:26:00;;;;;;;;;;;15.70;99.90;;;;;;5115505;28;19908;-67
2023/08/25 00:28:27;;;;;;;;;;;15.80;99.90;;;;;;5103536;28;19908;-66
2023/08/25 00:30:54;;;;;;;;;;;15.90;99.90;;;;;;5110704;28;19916;-68
2023/08/25 00:33:21;;;;;;;;;;;16.00;99.90;;;;;;5115443;28;19919;-68
2023/08/25 00:35:48;;;;;;;;;;;16.10;99.90;;;;;;5096790;28;20392;-67
2023/08/25 00:38:15;;;;;;;;;;;16.10;99.90;;;;;;5114660;28;19916;-68
2023/08/25 00:40:42;;;;;;;;;;;16.30;99.90;;;;;;5102360;28;20017;-67
2023/08/25 00:43:08;;;;;;;;;;;16.40;99.90;;;;;;5108097;28;19915;-67
2023/08/25 00:45:37;;;;;;;;;;;16.40;99.90;;;;;;5114717;28;19919;-66
2023/08/25 00:48:04;;;;;;;;;;;16.50;99.90;;;;;;5105878;28;19916;-67
2023/08/25 00:50:31;;;;;;;;;;;16.70;99.90;;;;;;5113693;28;19920;-67
2023/08/25 00:52:57;;;;;;;;;;;16.80;99.50;;;;;;5115054;28;19912;-67
2023/08/25 00:55:24;;;;;;;;;;;17.00;99.80;;;;;;5105640;28;19919;-67
2023/08/25 00:57:51;;;;;;;;;;;17.10;98.00;;;;;;5094290;28;20293;-66
2023/08/25 01:00:18;;;;;;;;;;;17.20;96.80;;;;;;5104754;28;20319;-69
2023/08/25 01:02:45;;;;;;;;;;;17.20;95.40;;;;;;5097704;28;20467;-70
2023/08/25 01:05:11;;;;;;;;;;;17.30;95.40;;;;;;5095568;28;19919;-67
2023/08/25 01:07:38;;;;;;;;;;;17.50;95.50;;;;;;5098673;28;20391;-68
2023/08/25 01:10:05;;;;;;;;;;;17.50;92.70;;;;;;5108981;28;19923;-67
2023/08/25 01:12:51;;;;;;;;;;;17.70;93.30;;;;;;5107529;28;20388;-68
2023/08/25 01:15:23;;;;;;;;;;;17.90;93.80;;;;;;5106197;28;20327;-67
2023/08/25 01:17:54;;;;;;;;;;;18.00;93.60;;;;;;5096444;28;20069;-69
2023/08/25 01:20:22;;;;;;;;;;;18.20;93.70;;;;;;5113600;28;19912;-68
2023/08/25 01:22:49;;;;;;;;;;;18.30;93.00;;;;;;5113588;28;19989;-67
2023/08/25 01:25:26;;;;;;;;;;;18.50;91.80;;;;;;5113942;28;19908;-68
2023/08/25 01:27:55;;;;;;;;;;;18.60;92.10;;;;;;5113237;28;19915;-67
2023/08/25 01:30:28;;;;;;;;;;;18.70;91.80;;;;;;5099395;28;19935;-67
2023/08/25 01:32:54;;;;;;;;;;;18.80;92.10;;;;;;5093423;28;19915;-69
2023/08/25 01:35:35;;;;;;;;;;;19.10;92.00;;;;;;5093735;28;20357;-66
2023/08/25 01:38:25;;;;;;;;;;;19.30;91.50;;;;;;5107003;28;19923;-68
2023/08/25 01:40:54;;;;;;;;;;;19.50;90.10;;;;;;5051868;28;19964;-69
2023/08/25 01:43:24;;;;;;;;;;;19.60;90.20;;;;;;5113833;28;19930;-70
2023/08/25 01:45:52;;;;;;;;;;;19.70;89.90;;;;;;5110392;28;19924;-66
2023/08/25 01:48:20;;;;;;;;;;;19.80;89.90;;;;;;5093044;28;20301;-67
2023/08/25 01:50:46;;;;;;;;;;;20.10;90.10;;;;;;5094787;28;19915;-70
2023/08/25 01:53:13;;;;;;;;;;;20.20;88.20;;;;;;5113363;28;20336;-68
2023/08/25 01:55:40;;;;;;;;;;;20.40;88.50;;;;;;5113939;28;20321;-66
2023/08/25 01:58:06;;;;;;;;;;;20.50;84.70;;;;;;5094358;28;19920;-68
2023/08/25 02:00:33;;;;;;;;;;;20.70;83.70;;;;;;5105048;28;19914;-66
2023/08/25 02:03:00;;;;;;;;;;;20.70;84.10;;;;;;5104882;28;19962;-67
2023/08/25 02:05:26;;;;;;;;;;;20.80;85.60;;;;;;5093318;28;19912;-67
2023/08/25 02:07:53;;;;;;;;;;;20.90;84.70;;;;;;5092518;28;20007;-67
2023/08/25 02:10:20;;;;;;;;;;;20.90;83.30;;;;;;5108447;28;19919;-68
2023/08/25 02:12:47;;;;;;;;;;;21.00;84.10;;;;;;5103808;28;19955;-69
2023/08/25 02:15:13;;;;;;;;;;;21.10;84.90;;;;;;5093099;28;19915;-67
2023/08/25 02:17:40;;;;;;;;;;;21.10;83.50;;;;;;5092336;28;19912;-67
2023/08/25 02:20:07;;;;;;;;;;;21.30;84.30;;;;;;5093171;28;19912;-65
2023/08/25 02:22:34;;;;;;;;;;;21.30;84.40;;;;;;5109323;28;20387;-68
2023/08/25 02:25:00;;;;;;;;;;;21.50;82.90;;;;;;5110999;28;19911;-67
2023/08/25 02:27:28;;;;;;;;;;;21.50;81.70;;;;;;5099062;28;19908;-68
2023/08/25 02:29:54;;;;;;;;;;;21.60;81.60;;;;;;5106709;28;19946;-67
2023/08/25 02:32:21;;;;;;;;;;;21.70;80.90;;;;;;5111186;28;19919;-65
2023/08/25 02:34:47;;;;;;;;;;;22.00;81.20;;;;;;5112209;28;19908;-67
2023/08/25 02:37:14;;;;;;;;;;;22.30;80.90;;;;;;5107669;28;19916;-67
2023/08/25 02:39:41;;;;;;;;;;;22.60;80.00;;;;;;5100492;28;19918;-66
2023/08/25 02:42:07;;;;;;;;;;;23.00;79.00;;;;;;5112936;28;19918;-67
2023/08/25 02:44:34;;;;;;;;;;;23.50;77.50;;;;;;5112650;28;19920;-66
2023/08/25 02:47:00;;;;;;;;;;;24.50;76.70;;;;;;5112529;28;19911;-67
2023/08/25 02:49:27;;;;;;;;;;;25.50;73.10;;;;;;5098658;28;20376;-68
2023/08/25 02:51:56;;;;;;;;;;;26.20;70.30;;;;;;5092470;28;19916;-69
2023/08/25 02:54:25;;;;;;;;;;;27.10;67.40;;;;;;5091947;28;19919;-68
2023/08/25 02:56:52;;;;;;;;;;;28.00;64.80;;;;;;5091699;28;19908;-65
2023/08/25 02:59:18;;;;;;;;;;;28.60;63.20;;;;;;5092419;28;20323;-68
2023/08/25 03:01:45;;;;;;;;;;;29.40;61.60;;;;;;5105961;28;19957;-66
2023/08/25 03:04:11;;;;;;;;;;;30.10;60.30;;;;;;5112641;28;20368;-68
2023/08/25 03:06:39;;;;;;;;;;;31.60;58.10;;;;;;5105268;28;20008;-68
2023/08/25 03:09:05;;;;;;;;;;;32.60;59.20;;;;;;5111916;28;19919;-68
2023/08/25 03:11:32;;;;;;;;;;;32.80;56.30;;;;;;5112753;28;19994;-68
2023/08/25 03:13:59;;;;;;;;;;;32.50;58.10;;;;;;5091188;28;19918;-67
2023/08/25 03:16:25;;;;;;;;;;;32.70;56.50;;;;;;5111818;28;19908;-68
2023/08/25 03:18:52;;;;;;;;;;;31.50;58.30;;;;;;5106042;28;20426;-67
2023/08/25 03:21:18;;;;;;;;;;;31.50;58.90;;;;;;5092336;28;19954;-66
2023/08/25 03:23:46;;;;;;;;;;;31.50;59.10;;;;;;5092464;28;20360;-67
2023/08/25 03:26:12;;;;;;;;;;;32.60;59.50;;;;;;5090226;28;19908;-67
2023/08/25 03:28:39;;;;;;;;;;;33.50;58.80;;;;;;5093536;28;19920;-69
2023/08/25 03:31:06;;;;;;;;;;;34.20;57.50;;;;;;5101694;28;19912;-67
2023/08/25 03:33:32;;;;;;;;;;;34.00;57.50;;;;;;5109807;28;19912;-67
2023/08/25 03:35:59;;;;;;;;;;;34.10;57.20;;;;;;5109684;28;19919;-69
2023/08/25 03:38:25;;;;;;;;;;;33.60;57.70;;;;;;5109500;28;19968;-67
2023/08/25 03:41:01;;;;;;;;;;;33.90;58.00;;;;;;5112150;28;20000;-66
2023/08/25 03:43:28;;;;;;;;;;;34.60;57.60;;;;;;5111504;28;19916;-66
2023/08/25 03:45:54;;;;;;;;;;;34.90;57.00;;;;;;5092418;28;19920;-67
2023/08/25 03:48:21;;;;;;;;;;;34.20;56.90;;;;;;5103840;28;19977;-68
2023/08/25 03:50:48;;;;;;;;;;;33.80;57.70;;;;;;5097801;28;19938;-67
2023/08/25 03:53:15;;;;;;;;;;;33.80;57.70;;;;;;5109413;28;19951;-67
2023/08/25 03:55:41;;;;;;;;;;;34.60;56.70;;;;;;5102637;28;19920;-69
2023/08/25 03:58:08;;;;;;;;;;;34.60;56.40;;;;;;5102897;28;20335;-69
2023/08/25 04:00:34;;;;;;;;;;;34.10;57.00;;;;;;5102897;28;19918;-66
2023/08/25 04:03:03;;;;;;;;;;;34.20;55.80;;;;;;5107026;28;20003;-67
2023/08/25 04:05:30;;;;;;;;;;;34.30;55.80;;;;;;5098079;28;20506;-67
2023/08/25 04:07:57;;;;;;;;;;;34.30;55.40;;;;;;5100538;28;19912;-68
2023/08/25 04:10:24;;;;;;;;;;;34.50;55.80;;;;;;5109972;28;20474;-68
2023/08/25 04:12:50;;;;;;;;;;;34.50;56.00;;;;;;5097359;28;19912;-67
2023/08/25 04:15:20;;;;;;;;;;;34.40;56.70;;;;;;5108691;28;19959;-68
2023/08/25 04:17:47;;;;;;;;;;;34.40;56.70;;;;;;5103388;28;19919;-68
2023/08/25 04:20:16;;;;;;;;;;;34.30;56.20;;;;;;5102762;28;19934;-66
2023/08/25 04:22:43;;;;;;;;;;;34.30;56.80;;;;;;5110583;28;19912;-68
2023/08/25 04:25:09;;;;;;;;;;;34.30;56.80;;;;;;5110921;28;19915;-67
2023/08/25 04:27:36;;;;;;;;;;;33.90;57.20;;;;;;5096843;28;19916;-68
2023/08/25 04:30:03;;;;;;;;;;;33.80;56.90;;;;;;5100832;28;19911;-67
2023/08/25 04:32:30;;;;;;;;;;;34.10;58.30;;;;;;5113591;28;19963;-68
2023/08/25 04:34:56;;;;;;;;;;;34.30;58.10;;;;;;5109337;28;19916;-67
2023/08/25 04:37:23;;;;;;;;;;;33.80;57.10;;;;;;5106857;28;19915;-67
2023/08/25 04:39:49;;;;;;;;;;;33.60;57.70;;;;;;5109338;28;19968;-69
2023/08/25 04:42:16;;;;;;;;;;;33.90;58.70;;;;;;5113535;28;20364;-69
2023/08/25 04:44:43;;;;;;;;;;;34.20;57.90;;;;;;5112266;28;19924;-70
2023/08/25 04:47:09;;;;;;;;;;;33.80;59.30;;;;;;5109059;28;19919;-68
2023/08/25 04:49:36;;;;;;;;;;;33.70;59.80;;;;;;5104028;28;19908;-67
2023/08/25 04:52:03;;;;;;;;;;;34.00;59.50;;;;;;5107547;28;20006;-68
2023/08/25 04:54:29;;;;;;;;;;;33.90;59.60;;;;;;5113223;28;19915;-70
2023/08/25 04:56:56;;;;;;;;;;;34.10;59.60;;;;;;5093849;28;19952;-69
2023/08/25 04:59:24;;;;;;;;;;;34.30;58.20;;;;;;5103670;28;19920;-69
2023/08/25 05:01:50;;;;;;;;;;;34.40;57.90;;;;;;5097297;28;19911;-70
2023/08/25 05:04:17;;;;;;;;;;;34.60;57.00;;;;;;5102800;28;19912;-68
2023/08/25 05:06:43;;;;;;;;;;;35.00;56.20;;;;;;5106870;28;19911;-68
2023/08/25 05:09:10;;;;;;;;;;;34.70;57.40;;;;;;5112291;28;19934;-68
2023/08/25 05:11:39;;;;;;;;;;;34.50;57.30;;;;;;5110603;28;19969;-69
2023/08/25 05:14:05;;;;;;;;;;;34.70;57.40;;;;;;5103571;28;19919;-69
2023/08/25 05:16:32;;;;;;;;;;;34.90;57.20;;;;;;5106665;28;19991;-67
2023/08/25 05:18:59;;;;;;;;;;;34.60;57.70;;;;;;5112208;28;19927;-67
2023/08/25 05:21:25;;;;;;;;;;;34.60;58.10;;;;;;5111017;28;19908;-68
2023/08/25 05:24:12;;;;;;;;;;;35.20;59.50;;;;;;5107467;28;19961;-67
2023/08/25 05:26:38;;;;;;;;;;;35.00;59.40;;;;;;5089486;28;19935;-68
2023/08/25 05:29:05;;;;;;;;;;;34.90;59.60;;;;;;5106236;28;20376;-68
2023/08/25 05:31:32;;;;;;;;;;;34.80;59.00;;;;;;5109480;28;20002;-68
2023/08/25 05:33:58;;;;;;;;;;;34.50;58.80;;;;;;5110467;28;20493;-68
2023/08/25 05:36:25;;;;;;;;;;;34.20;59.00;;;;;;5111471;28;20380;-70
2023/08/25 05:38:52;;;;;;;;;;;33.40;60.00;;;;;;5110348;28;19915;-70
2023/08/25 05:41:19;;;;;;;;;;;33.30;60.10;;;;;;5102664;28;19911;-69
2023/08/25 05:43:46;;;;;;;;;;;33.10;61.40;;;;;;5109066;28;20615;-68
2023/08/25 05:46:12;;;;;;;;;;;32.50;61.40;;;;;;5102794;28;19920;-68
2023/08/25 05:48:39;;;;;;;;;;;33.20;60.20;;;;;;5105153;28;19930;-70
2023/08/25 05:51:05;;;;;;;;;;;33.50;59.80;;;;;;5108792;28;19923;-68
2023/08/25 05:53:32;;;;;;;;;;;33.60;59.70;;;;;;5111637;28;19915;-68
2023/08/25 05:55:59;;;;;;;;;;;33.40;58.40;;;;;;5099040;28;19912;-68
2023/08/25 05:58:25;;;;;;;;;;;33.20;58.90;;;;;;5111807;28;19967;-69
2023/08/25 06:00:52;;;;;;;;;;;33.50;58.60;;;;;;5102539;28;19996;-69
2023/08/25 06:03:19;;;;;;;;;;;33.70;57.00;;;;;;5111778;28;19915;-67
2023/08/25 06:05:51;;;;;;;;;;;33.50;56.40;;;;;;5111852;28;19919;-67
2023/08/25 06:08:18;;;;;;;;;;;32.90;57.80;;;;;;5088239;28;19923;-67
2023/08/25 06:10:44;;;;;;;;;;;33.20;58.50;;;;;;5102983;28;19973;-69
2023/08/25 06:13:11;;;;;;;;;;;33.10;58.80;;;;;;5102449;28;19972;-69
2023/08/25 06:15:38;;;;;;;;;;;33.00;58.40;;;;;;5095174;28;19919;-67
2023/08/25 06:18:04;;;;;;;;;;;32.50;59.60;;;;;;5091392;28;19930;-68
2023/08/25 06:20:31;;;;;;;;;;;31.90;61.60;;;;;;5096294;28;19990;-66
2023/08/25 06:22:58;;;;;;;;;;;31.50;62.80;;;;;;5110770;28;20017;-66
2023/08/25 06:25:25;;;;;;;;;;;30.60;64.30;;;;;;5096781;28;20061;-68
2023/08/25 06:27:51;;;;;;;;;;;30.10;66.50;;;;;;5104005;28;19924;-67
2023/08/25 06:30:18;;;;;;;;;;;29.70;66.90;;;;;;5096367;28;19919;-69
2023/08/25 06:32:45;;;;;;;;;;;29.80;66.80;;;;;;5101470;28;19973;-68
2023/08/25 06:35:12;;;;;;;;;;;29.90;66.30;;;;;;5102649;28;20007;-68
2023/08/25 06:37:39;;;;;;;;;;;30.00;66.10;;;;;;5101586;28;20352;-67
2023/08/25 06:40:08;;;;;;;;;;;29.30;66.30;;;;;;5098955;28;20030;-68
2023/08/25 06:42:35;;;;;;;;;;;28.30;67.80;;;;;;5106312;28;19912;-66
2023/08/25 06:45:02;;;;;;;;;;;27.40;70.20;;;;;;5103473;28;19945;-68
2023/08/25 06:47:30;;;;;;;;;;;26.80;71.00;;;;;;5110380;28;19915;-66
2023/08/25 06:49:56;;;;;;;;;;;26.10;72.90;;;;;;5111763;28;19919;-68
2023/08/25 06:52:23;;;;;;;;;;;25.70;74.30;;;;;;5111584;28;19918;-67
2023/08/25 06:54:50;;;;;;;;;;;25.30;74.80;;;;;;5105358;28;19908;-69
2023/08/25 06:57:16;;;;;;;;;;;24.50;76.40;;;;;;5094128;28;19912;-68
2023/08/25 06:59:43;;;;;;;;;;;23.80;78.80;;;;;;5103769;28;19938;-67
2023/08/25 07:02:10;;;;;;;;;;;23.20;80.90;;;;;;5097169;28;19916;-67
2023/08/25 07:04:36;;;;;;;;;;;22.60;83.40;;;;;;5096122;28;19915;-68
2023/08/25 07:07:03;;;;;;;;;;;22.00;85.80;;;;;;5091662;28;20387;-68
2023/08/25 07:09:30;;;;;;;;;;;21.20;88.70;;;;;;5106633;28;19908;-69
2023/08/25 07:11:56;;;;;;;;;;;20.70;90.80;;;;;;5099503;28;19938;-68
2023/08/25 07:14:23;;;;;;;;;;;20.40;91.70;;;;;;5097464;28;19916;-68
2023/08/25 07:16:50;;;;;;;;;;;20.10;92.60;;;;;;5095140;28;19911;-67
2023/08/25 07:19:19;;;;;;;;;;;19.90;93.60;;;;;;5100671;28;20261;-67
2023/08/25 07:21:46;;;;;;;;;;;19.70;94.10;;;;;;5107932;28;19918;-69
2023/08/25 07:24:13;;;;;;;;;;;19.50;95.00;;;;;;5105893;28;19940;-68
2023/08/25 07:26:39;;;;;;;;;;;19.30;96.00;;;;;;5099769;28;19927;-68
2023/08/25 07:29:06;;;;;;;;;;;19.20;97.00;;;;;;5106710;28;19912;-67
2023/08/25 07:31:32;;;;;;;;;;;19.00;98.00;;;;;;5104216;28;19912;-68
2023/08/25 07:33:59;;;;;;;;;;;18.90;99.20;;;;;;5089895;28;19912;-66
2023/08/25 07:36:26;;;;;;;;;;;18.90;99.90;;;;;;5106796;28;19907;-70
2023/08/25 07:38:52;;;;;;;;;;;18.70;99.90;;;;;;5101782;28;19920;-69
2023/08/25 07:41:21;;;;;;;;;;;18.60;99.90;;;;;;5103901;28;19962;-67
2023/08/25 07:43:48;;;;;;;;;;;18.50;99.90;;;;;;5101587;28;20347;-67
2023/08/25 07:46:15;;;;;;;;;;;18.30;99.90;;;;;;5087094;28;20015;-69
2023/08/25 07:48:42;;;;;;;;;;;18.30;99.90;;;;;;5100338;28;19934;-67
2023/08/25 07:51:08;;;;;;;;;;;18.20;99.90;;;;;;5093664;28;19916;-67
2023/08/25 07:53:35;;;;;;;;;;;18.00;99.90;;;;;;5096591;28;20003;-66
2023/08/25 07:56:03;;;;;;;;;;;18.00;99.90;;;;;;5096047;28;20484;-68
2023/08/25 07:58:29;;;;;;;;;;;18.00;99.90;;;;;;5094923;28;19916;-67
2023/08/25 08:00:56;;;;;;;;;;;17.90;99.90;;;;;;5103205;28;19941;-67
2023/08/25 08:03:22;;;;;;;;;;;17.90;99.90;;;;;;5091513;28;19965;-67
2023/08/25 08:05:49;;;;;;;;;;;17.90;99.90;;;;;;5099271;28;19919;-67
2023/08/25 08:08:16;;;;;;;;;;;17.90;99.90;;;;;;5096508;28;19908;-67
2023/08/25 08:10:43;;;;;;;;;;;17.80;99.90;;;;;;5103382;28;19982;-66
2023/08/25 08:13:09;;;;;;;;;;;17.70;99.90;;;;;;5111600;28;19916;-65
2023/08/25 08:15:36;;;;;;;;;;;17.60;99.90;;;;;;5098735;28;19919;-65
2023/08/25 08:18:03;;;;;;;;;;;17.50;99.90;;;;;;5097955;28;19919;-70
2023/08/25 08:20:30;;;;;;;;;;;17.50;99.90;;;;;;5111108;28;19919;-67
2023/08/25 08:22:56;;;;;;;;;;;17.50;99.90;;;;;;5098711;28;19916;-67
2023/08/25 08:25:24;;;;;;;;;;;17.40;99.90;;;;;;5106246;27;19911;-66
2023/08/25 08:27:50;;;;;;;;;;;17.30;99.90;;;;;;5102844;28;19947;-68
2023/08/25 08:30:19;;;;;;;;;;;17.20;99.90;;;;;;5093947;28;19973;-69
2023/08/25 08:32:46;;;;;;;;;;;17.10;99.90;;;;;;5105540;28;19907;-67
2023/08/25 08:35:13;;;;;;;;;;;17.10;99.90;;;;;;5105652;27;20000;-68
2023/08/25 08:37:40;;;;;;;;;;;17.00;99.90;;;;;;5104665;28;19916;-67
2023/08/25 08:40:10;;;;;;;;;;;17.00;99.90;;;;;;5098163;27;19916;-68
2023/08/25 08:42:37;;;;;;;;;;;16.90;99.90;;;;;;5104140;28;19916;-67
2023/08/25 08:45:07;;;;;;;;;;;16.80;99.90;;;;;;5107775;28;19948;-67
2023/08/25 08:47:37;;;;;;;;;;;16.80;99.90;;;;;;5101475;28;20008;-68
2023/08/25 08:50:06;;;;;;;;;;;16.80;99.90;;;;;;5102656;28;20006;-68
2023/08/25 08:52:32;;;;;;;;;;;16.80;99.90;;;;;;5103991;28;19908;-67
2023/08/25 08:54:59;;;;;;;;;;;16.80;99.90;;;;;;5102417;28;19918;-67
2023/08/25 08:57:27;;;;;;;;;;;16.80;99.90;;;;;;5096324;28;19916;-66
2023/08/25 08:59:54;;;;;;;;;;;16.70;99.90;;;;;;5095061;28;20364;-66
2023/08/25 09:02:20;;;;;;;;;;;16.60;99.90;;;;;;5098244;28;19919;-66
2023/08/25 09:04:51;;;;;;;;;;;16.70;99.90;;;;;;5098099;28;19911;-67
2023/08/25 09:07:18;;;;;;;;;;;16.70;99.90;;;;;;5098347;28;19912;-66
2023/08/25 09:09:46;;;;;;;;;;;16.60;99.90;;;;;;5098339;28;19923;-69
2023/08/25 09:12:17;;;;;;;;;;;16.60;99.90;;;;;;5094184;28;19908;-67
2023/08/25 09:14:44;;;;;;;;;;;16.60;99.90;;;;;;5101549;27;19937;-66
2023/08/25 09:17:14;;;;;;;;;;;16.60;99.90;;;;;;5102708;28;19920;-66
2023/08/25 09:19:41;;;;;;;;;;;16.50;99.90;;;;;;5095712;28;19919;-67
2023/08/25 09:22:13;;;;;;;;;;;16.50;99.90;;;;;;5093683;28;20372;-68
2023/08/25 09:24:42;;;;;;;;;;;16.50;99.90;;;;;;5095110;28;20349;-67
2023/08/25 09:27:28;;;;;;;;;;;16.40;99.90;;;;;;5100567;28;20069;-68
2023/08/25 09:30:06;;;;;;;;;;;16.30;99.90;;;;;;5093977;28;19912;-68
2023/08/25 09:32:33;;;;;;;;;;;16.20;99.90;;;;;;5093904;28;20295;-67
2023/08/25 09:35:18;;;;;;;;;;;16.30;99.90;;;;;;5097704;28;19912;-66
2023/08/25 09:37:45;;;;;;;;;;;16.20;99.90;;;;;;5093039;28;19916;-67
2023/08/25 09:40:12;;;;;;;;;;;16.20;99.90;;;;;;5093978;28;20280;-67
2023/08/25 09:42:39;;;;;;;;;;;16.10;99.90;;;;;;5101838;28;19912;-67
2023/08/25 09:45:06;;;;;;;;;;;16.00;99.90;;;;;;5079448;28;20877;-67
2023/08/25 09:47:33;;;;;;;;;;;16.00;99.90;;;;;;5097668;28;20371;-68
2023/08/25 09:49:59;;;;;;;;;;;15.90;99.90;;;;;;5093826;27;19967;-67
2023/08/25 09:52:26;;;;;;;;;;;15.90;99.90;;;;;;5093815;28;19926;-68
2023/08/25 09:54:53;;;;;;;;;;;15.90;99.90;;;;;;5100550;28;20341;-66
2023/08/25 09:57:21;;;;;;;;;;;15.90;99.90;;;;;;5101887;28;19962;-66
2023/08/25 09:59:48;;;;;;;;;;;15.80;99.90;;;;;;5096207;28;20016;-66
2023/08/25 10:02:14;;;;;;;;;;;15.70;99.90;;;;;;5093315;28;19912;-68
2023/08/25 10:04:41;;;;;;;;;;;15.70;99.90;;;;;;5092925;28;20276;-68
2023/08/25 10:07:08;;;;;;;;;;;15.70;99.90;;;;;;5101416;28;19952;-67
2023/08/25 10:09:34;;;;;;;;;;;15.70;99.90;;;;;;5093085;28;19961;-67
2023/08/25 10:12:04;;;;;;;;;;;15.60;99.90;;;;;;5093278;28;19916;-66
2023/08/25 10:14:32;;;;;;;;;;;15.60;99.90;;;;;;5092558;28;19912;-66
2023/08/25 10:17:01;;;;;;;;;;;15.60;99.90;;;;;;5101452;28;20332;-67
2023/08/25 10:19:28;;;;;;;;;;;15.50;99.90;;;;;;5093744;28;19926;-66
2023/08/25 10:21:55;;;;;;;;;;;15.50;99.90;;;;;;5093089;28;19912;-67
2023/08/25 10:24:23;;;;;;;;;;;15.50;99.90;;;;;;5097899;27;19971;-68
2023/08/25 10:26:51;;;;;;;;;;;15.40;99.90;;;;;;5103985;27;19927;-67
2023/08/25 10:29:18;;;;;;;;;;;15.40;99.90;;;;;;5100881;28;20040;-67
2023/08/25 10:31:49;;;;;;;;;;;15.40;99.90;;;;;;5091317;28;20288;-66
2023/08/25 10:34:33;;;;;;;;;;;15.30;99.90;;;;;;5093213;28;19908;-67
2023/08/25 10:37:07;;;;;;;;;;;15.30;99.90;;;;;;5096174;28;19908;-66
2023/08/25 10:39:52;;;;;;;;;;;15.30;99.90;;;;;;5092279;28;19920;-67
2023/08/25 10:42:30;;;;;;;;;;;15.20;99.90;;;;;;5092838;28;19931;-68
2023/08/25 10:45:01;;;;;;;;;;;15.20;99.90;;;;;;5096859;28;19977;-67
2023/08/25 10:47:28;;;;;;;;;;;15.20;99.90;;;;;;5092885;28;19965;-68
2023/08/25 10:49:55;;;;;;;;;;;15.10;99.90;;;;;;5072146;28;19912;-67
2023/08/25 10:52:22;;;;;;;;;;;15.10;99.90;;;;;;5090705;28;19969;-66
2023/08/25 10:54:52;;;;;;;;;;;15.10;99.90;;;;;;5097702;27;20347;-68
2023/08/25 10:57:18;;;;;;;;;;;15.00;99.90;;;;;;5106701;28;19951;-67
2023/08/25 10:59:55;;;;;;;;;;;15.00;99.90;;;;;;5107583;28;20379;-67
2023/08/25 11:02:37;;;;;;;;;;;15.00;99.90;;;;;;5092190;28;19998;-64
2023/08/25 11:05:36;;;;;;;;;;;14.90;99.90;;;;;;5098167;28;20283;-63
2023/08/25 11:08:03;;;;;;;;;;;14.90;99.90;;;;;;5058180;28;19918;-63
2023/08/25 11:10:36;;;;;;;;;;;14.90;99.90;;;;;;5103174;28;19908;-62
2023/08/25 11:13:07;;;;;;;;;;;14.90;99.90;;;;;;5092525;28;19912;-63
2023/08/25 11:15:37;;;;;;;;;;;14.80;99.90;;;;;;5104348;28;19912;-63
2023/08/25 11:18:04;;;;;;;;;;;14.80;99.90;;;;;;5091810;28;19920;-63
2023/08/25 11:20:30;;;;;;;;;;;14.70;99.90;;;;;;5091481;28;19919;-61
2023/08/25 11:22:58;;;;;;;;;;;14.80;99.90;;;;;;5092526;28;20361;-62
2023/08/25 11:25:26;;;;;;;;;;;14.70;99.90;;;;;;5104550;28;19919;-62
2023/08/25 11:27:53;;;;;;;;;;;14.70;99.90;;;;;;5092587;28;19916;-61
2023/08/25 11:30:20;;;;;;;;;;;14.70;99.90;;;;;;5117700;28;19911;-62
2023/08/25 11:32:47;;;;;;;;;;;14.70;99.90;;;;;;5102899;28;19919;-63
2023/08/25 11:35:14;;;;;;;;;;;14.80;99.90;;;;;;5102706;28;19965;-66
2023/08/25 11:37:41;;;;;;;;;;;14.80;99.90;;;;;;5093994;28;19958;-62
2023/08/25 11:40:14;;;;;;;;;;;14.80;99.90;;;;;;5113110;28;19920;-64
2023/08/25 11:42:41;;;;;;;;;;;14.90;99.90;;;;;;5098328;28;19919;-61
2023/08/25 11:45:08;;;;;;;;;;;14.90;99.90;;;;;;5100841;28;20300;-64
2023/08/25 11:47:35;;;;;;;;;;;14.90;99.90;;;;;;5110128;28;20369;-64
2023/08/25 11:50:04;;;;;;;;;;;14.90;99.90;;;;;;5115812;27;20279;-64
2023/08/25 11:52:32;;;;;;;;;;;15.00;99.90;;;;;;5122345;27;19954;-62
2023/08/25 11:54:58;;;;;;;;;;;15.00;99.90;;;;;;5098493;27;20001;-63
2023/08/25 11:57:37;;;;;;;;;;;15.00;99.90;;;;;;5101592;28;19954;-63
2023/08/25 12:00:05;;;;;;;;;;;15.00;99.90;;;;;;5101659;27;20001;-64
2023/08/25 12:02:32;;;;;;;;;;;15.00;99.90;;;;;;5101823;27;20049;-62
2023/08/25 12:05:05;;;;;;;;;;;15.00;99.90;;;;;;5097895;28;19908;-63
2023/08/25 12:07:33;;;;;;;;;;;14.90;99.90;;;;;;5114525;28;20004;-62
2023/08/25 12:10:01;;;;;;;;;;;14.80;99.90;;;;;;5100599;27;19919;-64
2023/08/25 12:12:31;;;;;;;;;;;14.80;99.90;;;;;;5112133;27;19912;-62
2023/08/25 12:14:58;;;;;;;;;;;14.70;99.90;;;;;;5096865;28;19915;-63
2023/08/25 12:17:28;;;;;;;;;;;14.80;99.90;;;;;;5102304;28;19955;-62
2023/08/25 12:19:56;;;;;;;;;;;14.70;99.90;;;;;;5096156;27;19999;-63
2023/08/25 12:22:23;;;;;;;;;;;14.70;99.90;;;;;;5106117;27;20403;-62
2023/08/25 12:24:49;;;;;;;;;;;14.60;99.90;;;;;;5095364;28;19973;-61
2023/08/25 12:27:18;;;;;;;;;;;14.60;99.90;;;;;;5103826;28;19943;-63
2023/08/25 12:29:44;;;;;;;;;;;14.60;99.90;;;;;;5095429;28;19912;-62
2023/08/25 12:32:11;;;;;;;;;;;14.50;99.90;;;;;;5099875;27;19916;-62
2023/08/25 12:34:38;;;;;;;;;;;14.50;99.90;;;;;;5095381;28;19915;-64
2023/08/25 12:37:04;;;;;;;;;;;14.50;99.90;;;;;;5103134;27;19912;-61
2023/08/25 12:39:31;;;;;;;;;;;14.50;99.90;;;;;;5094957;28;19920;-62
2023/08/25 12:41:58;;;;;;;;;;;14.50;99.90;;;;;;5128240;27;19912;-62
2023/08/25 12:44:24;;;;;;;;;;;14.40;99.90;;;;;;5094875;28;19916;-65
2023/08/25 12:46:51;;;;;;;;;;;14.40;99.90;;;;;;5102774;27;19916;-61
2023/08/25 12:49:17;;;;;;;;;;;14.30;99.90;;;;;;5094890;28;20339;-61
2023/08/25 12:51:44;;;;;;;;;;;14.20;99.90;;;;;;5095079;28;19915;-63
2023/08/25 12:54:13;;;;;;;;;;;14.20;99.90;;;;;;5076886;28;19912;-62
2023/08/25 12:56:40;;;;;;;;;;;14.20;99.90;;;;;;5109378;28;20293;-63
2023/08/25 12:59:06;;;;;;;;;;;14.20;99.90;;;;;;5109867;28;20440;-63
2023/08/25 13:01:33;;;;;;;;;;;14.20;99.90;;;;;;5095330;28;20356;-63
2023/08/25 13:04:00;;;;;;;;;;;14.20;99.90;;;;;;5094984;28;19916;-62
2023/08/25 13:06:26;;;;;;;;;;;14.20;99.90;;;;;;5099233;28;20041;-62
2023/08/25 13:08:53;;;;;;;;;;;14.10;99.90;;;;;;5115164;28;19965;-62
2023/08/25 13:11:19;;;;;;;;;;;14.20;99.90;;;;;;5115094;28;19926;-64
2023/08/25 13:13:46;;;;;;;;;;;14.10;99.90;;;;;;5115494;28;19914;-62
2023/08/25 13:16:13;;;;;;;;;;;14.10;99.90;;;;;;5115139;28;19914;-63
2023/08/25 13:18:39;;;;;;;;;;;14.10;99.90;;;;;;5115206;28;20360;-64
2023/08/25 13:21:06;;;;;;;;;;;14.00;99.90;;;;;;5115396;28;19943;-61
2023/08/25 13:23:32;;;;;;;;;;;14.00;99.90;;;;;;5115083;28;19912;-63
2023/08/25 13:25:59;;;;;;;;;;;13.90;99.90;;;;;;5114442;28;19926;-63
2023/08/25 13:28:26;;;;;;;;;;;13.90;99.90;;;;;;5114348;28;19908;-63
2023/08/25 13:30:52;;;;;;;;;;;13.90;99.90;;;;;;5113242;28;19955;-63
2023/08/25 13:33:19;;;;;;;;;;;13.90;99.90;;;;;;5094526;28;20344;-65
2023/08/25 13:35:48;;;;;;;;;;;13.80;99.90;;;;;;5113058;28;19914;-63
2023/08/25 13:38:15;;;;;;;;;;;13.80;99.90;;;;;;5113020;28;19920;-62
2023/08/25 13:40:41;;;;;;;;;;;13.70;99.90;;;;;;5112587;28;19915;-62
2023/08/25 13:43:10;;;;;;;;;;;13.70;99.90;;;;;;5113052;28;20295;-64
2023/08/25 13:45:37;;;;;;;;;;;13.60;99.90;;;;;;5114462;28;20332;-61
2023/08/25 13:48:03;;;;;;;;;;;13.60;99.90;;;;;;5115022;28;19915;-63
2023/08/25 13:50:30;;;;;;;;;;;13.60;99.90;;;;;;5114482;28;19911;-63
2023/08/25 13:52:57;;;;;;;;;;;13.40;99.90;;;;;;5114225;28;19911;-62
2023/08/25 13:55:23;;;;;;;;;;;13.50;99.90;;;;;;5113555;28;19915;-61
2023/08/25 13:57:50;;;;;;;;;;;13.40;99.90;;;;;;5114349;28;20296;-63
2023/08/25 14:00:17;;;;;;;;;;;13.40;99.90;;;;;;5114339;28;19916;-62
2023/08/25 14:02:43;;;;;;;;;;;13.40;99.90;;;;;;5114028;28;19919;-67
2023/08/25 14:05:12;;;;;;;;;;;13.40;99.90;;;;;;5114363;28;20308;-62
2023/08/25 14:07:39;;;;;;;;;;;13.30;99.90;;;;;;5114656;28;19907;-64
2023/08/25 14:10:06;;;;;;;;;;;13.30;99.90;;;;;;5113832;28;19953;-63
2023/08/25 14:12:33;;;;;;;;;;;13.30;99.90;;;;;;5114557;28;19908;-62
2023/08/25 14:15:00;;;;;;;;;;;13.30;99.90;;;;;;5114298;28;19914;-63
2023/08/25 14:17:26;;;;;;;;;;;13.20;99.90;;;;;;5114484;28;19995;-63
2023/08/25 14:19:53;;;;;;;;;;;13.20;99.90;;;;;;5114022;28;20327;-63